createdAt,value
2022-12-20T00:01:33.878Z,66.20
2022-12-20T00:04:03.648Z,64.20
2022-12-20T00:06:30.980Z,63.20
2022-12-20T00:09:02.687Z,62.60
2022-12-20T00:11:30.274Z,61.60
2022-12-20T00:13:58.393Z,60.50
2022-12-20T00:16:27.962Z,59.20
2022-12-20T00:18:58.240Z,58.20
2022-12-20T00:21:26.020Z,57.40
2022-12-20T00:23:53.677Z,58.50
2022-12-20T00:26:23.397Z,59.80
2022-12-20T00:28:50.470Z,60.10
2022-12-20T00:31:20.087Z,60.00
2022-12-20T00:33:49.324Z,59.10
2022-12-20T00:36:17.663Z,57.20
2022-12-20T00:38:49.495Z,58.20
2022-12-20T00:41:22.426Z,58.30
2022-12-20T00:43:50.090Z,57.60
2022-12-20T00:46:19.416Z,58.70
2022-12-20T00:48:47.058Z,57.50
2022-12-20T00:51:16.918Z,57.20
2022-12-20T00:53:44.042Z,56.30
2022-12-20T00:56:11.557Z,54.60
2022-12-20T00:58:42.209Z,53.90
2022-12-20T01:01:24.915Z,52.90
2022-12-20T01:03:52.968Z,51.80
2022-12-20T01:06:20.681Z,52.40
2022-12-20T01:08:47.725Z,51.30
2022-12-20T01:11:21.629Z,50.40
2022-12-20T01:13:50.813Z,50.30
2022-12-20T01:16:23.865Z,49.90
2022-12-20T01:18:52.200Z,49.30
2022-12-20T01:21:21.496Z,47.40
2022-12-20T01:23:48.613Z,47.50
2022-12-20T01:26:18.606Z,47.20
2022-12-20T01:28:47.060Z,46.20
2022-12-20T01:31:17.585Z,46.60
2022-12-20T01:33:46.629Z,46.30
2022-12-20T01:36:18.655Z,47.40
2022-12-20T01:38:46.015Z,47.40
2022-12-20T01:41:19.331Z,48.10
2022-12-20T01:44:07.000Z,48.50
2022-12-20T01:46:36.588Z,47.10
2022-12-20T01:49:11.725Z,46.40
2022-12-20T01:51:45.366Z,47.40
2022-12-20T01:54:20.254Z,46.40
2022-12-20T01:56:53.519Z,45.00
2022-12-20T01:59:20.705Z,44.00
2022-12-20T02:01:47.832Z,43.50
2022-12-20T02:04:14.880Z,44.60
2022-12-20T02:06:41.940Z,45.10
2022-12-20T02:09:09.265Z,45.00
2022-12-20T02:11:44.809Z,45.10
2022-12-20T02:14:38.639Z,45.20
2022-12-20T02:17:15.897Z,44.90
2022-12-20T02:20:37.254Z,43.70
2022-12-20T02:23:32.746Z,43.60
2022-12-20T02:26:33.943Z,43.20
2022-12-20T02:29:19.247Z,43.20
2022-12-20T02:32:00.660Z,43.80
2022-12-20T02:34:32.643Z,43.50
2022-12-20T02:36:59.601Z,42.90
2022-12-20T02:39:28.477Z,42.90
2022-12-20T02:42:00.935Z,42.50
2022-12-20T02:44:49.247Z,42.80
2022-12-20T02:47:23.443Z,43.90
2022-12-20T02:49:51.511Z,45.40
2022-12-20T02:52:22.572Z,45.10
2022-12-20T02:54:49.599Z,46.20
2022-12-20T02:57:26.729Z,47.50
2022-12-20T03:00:05.541Z,48.60
2022-12-20T03:02:53.935Z,48.20
2022-12-20T03:05:23.460Z,47.70
2022-12-20T03:07:50.511Z,47.30
2022-12-20T03:10:18.085Z,48.50
2022-12-20T03:12:45.331Z,49.10
2022-12-20T03:15:12.642Z,49.50
2022-12-20T03:17:39.597Z,48.80
2022-12-20T03:20:07.441Z,48.00
2022-12-20T03:22:35.442Z,48.20
2022-12-20T03:25:02.345Z,47.30
2022-12-20T03:27:29.301Z,47.30
2022-12-20T03:29:56.423Z,47.40
2022-12-20T03:32:23.775Z,48.80
2022-12-20T03:34:50.700Z,49.60
2022-12-20T03:37:17.809Z,49.80
2022-12-20T03:39:44.700Z,49.70
2022-12-20T03:42:11.648Z,49.70
2022-12-20T03:44:38.663Z,50.60
2022-12-20T03:47:05.631Z,53.20
2022-12-20T03:49:32.600Z,56.30
2022-12-20T03:51:59.628Z,60.40
2022-12-20T03:54:26.577Z,61.10
2022-12-20T03:56:53.705Z,62.20
2022-12-20T03:59:20.965Z,62.10
2022-12-20T04:01:47.962Z,62.70
2022-12-20T04:04:16.152Z,63.10
2022-12-20T04:06:43.077Z,62.90
2022-12-20T04:09:10.067Z,64.00
2022-12-20T04:11:37.163Z,66.90
2022-12-20T04:14:04.046Z,71.10
2022-12-20T04:16:31.733Z,74.20
2022-12-20T04:18:58.664Z,77.20
2022-12-20T04:21:30.962Z,79.40
2022-12-20T04:24:01.385Z,80.80
2022-12-20T04:26:28.485Z,83.20
2022-12-20T04:28:55.504Z,84.70
2022-12-20T04:31:24.368Z,86.70
2022-12-20T04:33:52.252Z,89.10
2022-12-20T04:36:19.522Z,90.60
2022-12-20T04:38:46.520Z,91.40
2022-12-20T04:44:04.322Z,91.90
2022-12-20T04:46:31.718Z,92.00
2022-12-20T04:48:59.831Z,92.60
2022-12-20T04:51:28.608Z,92.30
2022-12-20T04:53:56.539Z,92.60
2022-12-20T04:56:28.847Z,92.80
2022-12-20T04:58:57.709Z,92.40
2022-12-20T05:01:25.201Z,91.80
2022-12-20T05:03:52.305Z,91.20
2022-12-20T05:06:19.760Z,91.10
2022-12-20T05:08:47.144Z,91.60
2022-12-20T05:11:14.292Z,92.10
2022-12-20T05:13:41.430Z,92.40
2022-12-20T05:16:08.721Z,92.30
2022-12-20T05:18:36.602Z,92.60
2022-12-20T05:21:23.328Z,93.20
2022-12-20T05:24:08.835Z,93.40
2022-12-20T05:26:38.086Z,93.10
2022-12-20T05:29:06.234Z,92.90
2022-12-20T05:31:33.834Z,93.20
2022-12-20T05:34:00.783Z,93.50
2022-12-20T05:36:27.793Z,93.90
2022-12-20T05:39:00.077Z,94.50
2022-12-20T05:41:30.454Z,95.80
2022-12-20T05:43:57.499Z,95.90
2022-12-20T05:46:24.477Z,96.10
2022-12-20T05:48:51.401Z,96.60
2022-12-20T05:51:18.337Z,97.10
2022-12-20T05:53:45.236Z,97.50
2022-12-20T05:56:12.244Z,97.80
2022-12-20T05:58:40.402Z,98.10
2022-12-20T06:01:08.365Z,98.30
2022-12-20T06:03:36.385Z,98.60
2022-12-20T06:06:08.649Z,98.70
2022-12-20T06:08:38.989Z,98.70
2022-12-20T06:11:07.103Z,98.90
2022-12-20T06:13:34.059Z,99.40
2022-12-20T06:16:01.619Z,99.30
2022-12-20T06:18:28.780Z,99.30
2022-12-20T06:20:55.761Z,98.90
2022-12-20T06:23:24.516Z,98.50
2022-12-20T06:25:52.005Z,98.00
2022-12-20T06:28:22.241Z,97.30
2022-12-20T06:30:57.867Z,96.50
2022-12-20T06:33:25.828Z,95.90
2022-12-20T06:35:53.155Z,95.90
2022-12-20T06:38:20.121Z,95.60
2022-12-20T06:40:47.059Z,95.70
2022-12-20T06:43:14.062Z,95.50
2022-12-20T06:45:42.583Z,95.20
2022-12-20T06:48:11.456Z,94.70
2022-12-20T06:50:39.757Z,94.20
2022-12-20T06:53:06.901Z,94.00
2022-12-20T06:55:34.391Z,93.90
2022-12-20T06:58:01.543Z,93.50
2022-12-20T07:00:28.565Z,92.90
2022-12-20T07:02:55.686Z,92.30
2022-12-20T07:05:22.737Z,91.60
2022-12-20T07:07:49.916Z,90.60
2022-12-20T07:10:17.082Z,89.90
2022-12-20T07:12:48.027Z,88.80
2022-12-20T07:15:15.686Z,88.20
2022-12-20T07:17:42.590Z,87.00
2022-12-20T07:20:13.718Z,85.40
2022-12-20T07:22:41.480Z,85.10
2022-12-20T07:25:08.847Z,84.60
2022-12-20T07:27:36.086Z,84.60
2022-12-20T07:30:05.326Z,82.90
2022-12-20T07:32:32.855Z,80.90
2022-12-20T07:34:59.937Z,80.90
2022-12-20T07:37:29.204Z,80.90
2022-12-20T07:39:56.161Z,80.80
2022-12-20T07:42:23.114Z,80.60
2022-12-20T07:44:49.971Z,80.20
2022-12-20T07:47:16.987Z,80.40
2022-12-20T07:49:43.869Z,80.80
2022-12-20T07:52:13.939Z,80.10
2022-12-20T07:54:49.810Z,77.90
2022-12-20T07:57:27.987Z,77.00
2022-12-20T07:59:59.309Z,75.20
2022-12-20T08:02:35.687Z,73.70
2022-12-20T08:05:05.081Z,72.60
2022-12-20T08:07:32.476Z,71.50
2022-12-20T08:09:59.930Z,70.20
2022-12-20T08:12:29.083Z,69.10
2022-12-20T08:14:57.126Z,69.00
2022-12-20T08:17:24.241Z,69.00
2022-12-20T08:19:52.407Z,66.90
2022-12-20T08:22:19.930Z,65.40
2022-12-20T08:24:47.118Z,64.30
2022-12-20T08:27:15.305Z,62.20
2022-12-20T08:29:42.303Z,60.00
2022-12-20T08:32:10.384Z,55.00
2022-12-20T08:34:37.566Z,47.90
2022-12-20T08:37:09.057Z,49.20
2022-12-20T08:39:39.368Z,51.80
2022-12-20T08:42:06.413Z,54.10
2022-12-20T08:44:33.332Z,53.00
2022-12-20T08:47:00.372Z,54.10
2022-12-20T08:49:27.311Z,52.70
2022-12-20T08:51:54.406Z,53.60
2022-12-20T08:54:21.515Z,52.80
2022-12-20T08:56:48.729Z,53.50
2022-12-20T08:59:15.624Z,53.80
2022-12-20T09:01:43.704Z,56.00
2022-12-20T09:04:11.887Z,55.40
2022-12-20T09:06:39.355Z,54.50
2022-12-20T09:09:07.664Z,52.20
2022-12-20T09:11:34.614Z,52.20
2022-12-20T09:14:01.721Z,51.00
2022-12-20T09:16:31.653Z,50.20
2022-12-20T09:19:04.976Z,48.90
2022-12-20T09:21:33.168Z,45.90
2022-12-20T09:24:00.330Z,44.50
2022-12-20T09:26:27.492Z,44.20
2022-12-20T09:28:54.477Z,44.20
2022-12-20T09:31:24.358Z,43.00
2022-12-20T09:33:55.302Z,45.10
2022-12-20T09:36:23.972Z,44.00
2022-12-20T09:38:51.438Z,43.70
2022-12-20T09:41:40.502Z,44.00
2022-12-20T09:44:20.147Z,42.80
2022-12-20T09:47:18.089Z,43.00
2022-12-20T09:49:52.897Z,41.90
2022-12-20T09:52:25.823Z,39.40
2022-12-20T09:55:25.107Z,38.70
2022-12-20T09:58:21.696Z,39.10
2022-12-20T10:00:54.243Z,38.00
2022-12-20T10:03:35.915Z,38.50
2022-12-20T10:06:25.440Z,39.00
2022-12-20T10:09:13.258Z,38.30
2022-12-20T10:12:27.287Z,38.10
2022-12-20T10:15:26.297Z,38.00
2022-12-20T10:18:50.710Z,37.10
2022-12-20T10:21:36.691Z,37.50
2022-12-20T10:24:12.614Z,37.30
2022-12-20T10:26:39.941Z,39.10
2022-12-20T10:29:07.259Z,39.40
2022-12-20T10:31:36.721Z,40.30
2022-12-20T10:34:16.916Z,38.40
2022-12-20T10:36:43.968Z,38.00
2022-12-20T10:39:10.972Z,39.40
2022-12-20T10:41:55.936Z,39.50
2022-12-20T10:44:32.906Z,40.80
2022-12-20T10:47:01.787Z,35.80
2022-12-20T10:49:34.146Z,36.60
2022-12-20T10:52:14.384Z,34.90
2022-12-20T10:54:50.213Z,33.10
2022-12-20T10:57:26.563Z,32.80
2022-12-20T11:00:29.299Z,33.40
2022-12-20T11:03:24.850Z,31.70
2022-12-20T11:06:04.572Z,33.80
2022-12-20T11:08:49.202Z,31.40
2022-12-20T11:11:24.245Z,31.10
2022-12-20T11:13:52.293Z,29.80
2022-12-20T11:16:46.903Z,31.30
2022-12-20T11:19:48.995Z,28.90
2022-12-20T11:22:32.565Z,28.80
2022-12-20T11:25:23.525Z,29.10
2022-12-20T11:28:17.688Z,29.60
2022-12-20T11:31:18.802Z,27.20
2022-12-20T11:34:27.363Z,28.00
2022-12-20T11:37:19.522Z,26.40
2022-12-20T11:40:35.874Z,27.10
2022-12-20T11:43:22.382Z,27.00
2022-12-20T11:46:18.788Z,28.10
2022-12-20T11:49:51.199Z,26.10
2022-12-20T11:52:41.199Z,26.10
2022-12-20T11:55:31.688Z,26.70
2022-12-20T11:58:19.416Z,25.40
2022-12-20T12:00:57.166Z,24.90
2022-12-20T12:03:36.094Z,27.10
2022-12-20T12:06:10.588Z,25.90
2022-12-20T12:08:43.549Z,26.30
2022-12-20T12:12:05.293Z,28.80
2022-12-20T12:14:52.417Z,28.60
2022-12-20T12:17:38.066Z,27.90
2022-12-20T12:20:22.236Z,27.70
2022-12-20T12:22:53.299Z,27.90
2022-12-20T12:25:20.352Z,27.30
2022-12-20T12:27:47.345Z,28.60
2022-12-20T12:30:16.396Z,27.50
2022-12-20T12:32:55.621Z,26.50
2022-12-20T12:35:52.784Z,25.30
2022-12-20T12:39:01.901Z,25.90
2022-12-20T12:42:07.880Z,25.70
2022-12-20T12:44:56.677Z,25.90
2022-12-20T12:47:57.508Z,25.60
2022-12-20T12:50:42.910Z,24.90
2022-12-20T12:53:37.406Z,25.80
2022-12-20T12:56:44.340Z,26.50
2022-12-20T12:59:57.600Z,27.60
2022-12-20T13:02:27.913Z,27.50
2022-12-20T13:05:16.563Z,28.60
2022-12-20T13:07:46.508Z,30.30
2022-12-20T13:10:56.417Z,30.90
2022-12-20T13:13:24.171Z,32.30
2022-12-20T13:15:52.823Z,34.60
2022-12-20T13:18:24.655Z,34.30
2022-12-20T13:21:30.619Z,34.40
2022-12-20T13:25:00.405Z,34.50
2022-12-20T13:27:34.357Z,33.70
2022-12-20T13:30:26.305Z,38.10
2022-12-20T13:33:18.960Z,38.50
2022-12-20T13:36:31.875Z,38.40
2022-12-20T13:39:22.659Z,38.90
2022-12-20T13:42:06.962Z,40.80
2022-12-20T13:44:39.920Z,43.10
2022-12-20T13:47:15.664Z,42.90
2022-12-20T13:49:43.950Z,44.90
2022-12-20T13:52:25.998Z,43.50
2022-12-20T13:54:57.435Z,44.40
2022-12-20T13:57:44.988Z,45.90
2022-12-20T14:00:16.999Z,47.90
2022-12-20T14:02:44.921Z,49.50
2022-12-20T14:05:28.634Z,51.00
2022-12-20T14:08:17.816Z,58.30
2022-12-20T14:10:45.211Z,77.50
2022-12-20T14:13:21.666Z,90.40
2022-12-20T14:15:49.003Z,94.60
2022-12-20T14:18:24.866Z,96.30
2022-12-20T14:21:02.988Z,96.70
2022-12-20T14:23:45.492Z,96.80
2022-12-20T14:26:25.219Z,96.40
2022-12-20T14:28:54.787Z,97.30
2022-12-20T14:31:43.913Z,98.00
2022-12-20T14:34:36.555Z,98.50
2022-12-20T14:37:32.124Z,99.30
2022-12-20T14:40:18.741Z,99.90
2022-12-20T14:42:46.105Z,99.90
2022-12-20T14:45:28.194Z,99.90
2022-12-20T14:48:21.203Z,99.90
2022-12-20T14:55:05.664Z,99.90
2022-12-20T14:57:51.500Z,99.90
2022-12-20T15:00:39.364Z,99.90
2022-12-20T15:03:22.713Z,99.90
2022-12-20T15:05:56.071Z,99.90
2022-12-20T15:08:27.919Z,99.90
2022-12-20T15:11:22.506Z,99.90
2022-12-20T15:13:54.589Z,99.90
2022-12-20T15:16:27.136Z,99.90
2022-12-20T15:18:56.487Z,99.90
2022-12-20T15:21:37.463Z,99.90
2022-12-20T15:24:09.801Z,99.90
2022-12-20T15:26:39.729Z,99.90
2022-12-20T15:29:07.198Z,99.90
2022-12-20T15:31:35.865Z,99.90
2022-12-20T15:34:15.839Z,99.90
2022-12-20T15:36:42.809Z,99.90
2022-12-20T15:39:13.341Z,99.90
2022-12-20T15:41:44.654Z,99.90
2022-12-20T15:44:18.770Z,99.90
2022-12-20T15:46:45.843Z,99.90
2022-12-20T15:49:18.303Z,99.90
2022-12-20T15:51:46.984Z,99.90
2022-12-20T15:54:35.831Z,99.90
2022-12-20T15:57:07.737Z,99.90
2022-12-20T16:02:23.374Z,99.90
2022-12-20T16:04:50.803Z,99.90
2022-12-20T16:07:17.985Z,99.90
2022-12-20T16:09:45.046Z,99.90
2022-12-20T16:12:34.453Z,99.90
2022-12-20T16:15:01.823Z,99.90
2022-12-20T16:17:28.868Z,99.90
2022-12-20T16:19:55.880Z,99.90
2022-12-20T16:22:28.471Z,99.90
2022-12-20T16:24:55.517Z,99.90
2022-12-20T16:27:22.892Z,99.90
2022-12-20T16:29:49.849Z,99.90
2022-12-20T16:32:21.931Z,99.90
2022-12-20T16:34:52.621Z,99.90
2022-12-20T16:37:19.723Z,99.90
2022-12-20T16:39:46.684Z,99.90
2022-12-20T16:42:19.536Z,99.90
2022-12-20T16:44:50.717Z,99.90
2022-12-20T16:47:17.821Z,99.90
2022-12-20T16:49:52.157Z,99.90
2022-12-20T16:52:22.126Z,99.90
2022-12-20T16:54:49.821Z,99.90
2022-12-20T16:57:16.836Z,99.90
2022-12-20T16:59:43.927Z,99.90
2022-12-20T17:02:33.135Z,99.90
2022-12-20T17:05:00.746Z,99.90
2022-12-20T17:07:27.766Z,99.90
2022-12-20T17:10:12.750Z,99.90
2022-12-20T17:12:40.025Z,99.90
2022-12-20T17:15:12.436Z,99.90
2022-12-20T17:17:39.393Z,99.90
2022-12-20T17:20:07.417Z,99.90
2022-12-20T17:25:30.794Z,99.90
2022-12-20T17:27:57.791Z,99.90
2022-12-20T17:30:26.069Z,99.90
2022-12-20T17:32:54.533Z,99.90
2022-12-20T17:35:25.621Z,99.90
2022-12-20T17:37:55.946Z,99.90
2022-12-20T17:40:27.583Z,99.90
2022-12-20T17:42:54.837Z,99.90
2022-12-20T17:45:36.225Z,99.90
2022-12-20T17:48:04.883Z,99.90
2022-12-20T17:50:32.005Z,99.90
2022-12-20T17:52:58.898Z,99.90
2022-12-20T17:55:27.927Z,99.90
2022-12-20T17:57:55.902Z,99.90
2022-12-20T18:00:36.400Z,99.90
2022-12-20T18:03:05.807Z,99.90
2022-12-20T18:05:32.862Z,99.90
2022-12-20T18:08:02.548Z,99.90
2022-12-20T18:10:29.561Z,99.90
2022-12-20T18:12:56.461Z,99.90
2022-12-20T18:15:24.001Z,99.90
2022-12-20T18:17:50.876Z,99.90
2022-12-20T18:20:17.827Z,99.90
2022-12-20T18:22:44.800Z,99.90
2022-12-20T18:25:14.007Z,99.90
2022-12-20T18:27:42.927Z,99.90
2022-12-20T18:30:12.582Z,99.90
2022-12-20T18:32:41.111Z,99.90
2022-12-20T18:35:09.561Z,99.90
2022-12-20T18:37:36.569Z,99.90
2022-12-20T18:40:04.114Z,99.90
2022-12-20T18:42:31.254Z,99.90
2022-12-20T18:44:58.235Z,99.90
2022-12-20T18:47:25.763Z,99.90
2022-12-20T18:49:52.976Z,99.90
2022-12-20T18:52:19.993Z,99.90
2022-12-20T18:54:46.984Z,99.90
2022-12-20T18:57:14.022Z,99.90
2022-12-20T18:59:40.983Z,99.90
2022-12-20T19:02:12.826Z,99.90
2022-12-20T19:04:40.144Z,99.90
2022-12-20T19:07:07.172Z,99.90
2022-12-20T19:09:34.430Z,99.90
2022-12-20T19:12:02.459Z,99.90
2022-12-20T19:14:29.439Z,99.90
2022-12-20T19:16:56.592Z,99.90
2022-12-20T19:19:23.698Z,99.90
2022-12-20T19:21:51.035Z,99.90
2022-12-20T19:24:17.999Z,99.90
2022-12-20T19:26:44.940Z,99.90
2022-12-20T19:29:12.205Z,99.90
2022-12-20T19:31:39.575Z,99.90
2022-12-20T19:34:09.156Z,99.90
2022-12-20T19:36:41.892Z,99.90
2022-12-20T19:39:18.485Z,99.90
2022-12-20T19:41:55.074Z,99.90
2022-12-20T19:44:27.300Z,99.90
2022-12-20T19:46:54.355Z,99.90
2022-12-20T19:49:21.545Z,99.90
2022-12-20T19:51:49.992Z,99.90
2022-12-20T19:54:16.986Z,99.90
2022-12-20T19:56:44.238Z,99.90
2022-12-20T19:59:14.099Z,99.90
2022-12-20T20:01:41.095Z,99.90
2022-12-20T20:04:10.173Z,99.90
2022-12-20T20:06:37.391Z,99.90
2022-12-20T20:09:04.457Z,99.90
2022-12-20T20:11:31.636Z,99.90
2022-12-20T20:14:00.567Z,99.90
2022-12-20T20:16:27.658Z,99.90
2022-12-20T20:18:54.862Z,99.90
2022-12-20T20:21:24.888Z,99.90
2022-12-20T20:23:53.581Z,99.90
2022-12-20T20:26:23.645Z,99.90
2022-12-20T20:28:51.100Z,99.90
2022-12-20T20:31:19.849Z,99.90
2022-12-20T20:33:47.693Z,99.90
2022-12-20T20:36:17.743Z,99.90
2022-12-20T20:38:45.834Z,99.90
2022-12-20T20:41:14.507Z,99.90
2022-12-20T20:43:42.110Z,99.90
2022-12-20T20:46:11.651Z,99.90
2022-12-20T20:48:39.533Z,99.90
2022-12-20T20:51:07.138Z,99.90
2022-12-20T20:53:34.866Z,99.90
2022-12-20T20:56:02.977Z,99.90
2022-12-20T20:58:30.033Z,99.90
2022-12-20T21:00:59.203Z,99.90
2022-12-20T21:03:27.688Z,99.90
2022-12-20T21:08:44.139Z,99.90
2022-12-20T21:11:11.664Z,99.90
2022-12-20T21:13:38.855Z,99.90
2022-12-20T21:16:10.538Z,99.90
2022-12-20T21:18:39.495Z,99.90
2022-12-20T21:21:10.732Z,99.90
2022-12-20T21:23:38.675Z,99.90
2022-12-20T21:26:06.803Z,99.90
2022-12-20T21:28:36.013Z,99.90
2022-12-20T21:31:05.690Z,99.90
2022-12-20T21:33:33.306Z,99.90
2022-12-20T21:36:08.819Z,99.90
2022-12-20T21:38:35.952Z,99.90
2022-12-20T21:41:08.072Z,99.90
2022-12-20T21:43:37.997Z,99.90
2022-12-20T21:46:05.163Z,99.90
2022-12-20T21:48:32.156Z,99.90
2022-12-20T21:51:10.933Z,99.90
2022-12-20T21:53:44.463Z,99.90
2022-12-20T21:56:11.759Z,99.90
2022-12-20T21:58:38.861Z,99.90
2022-12-20T22:01:06.762Z,99.90
2022-12-20T22:03:34.021Z,99.90
2022-12-20T22:06:01.159Z,99.90
2022-12-20T22:08:29.472Z,99.90
2022-12-20T22:11:08.719Z,99.90
2022-12-20T22:13:41.619Z,99.90
2022-12-20T22:16:30.365Z,99.90
2022-12-20T22:18:58.790Z,99.90
2022-12-20T22:21:28.892Z,99.90
2022-12-20T22:23:56.853Z,99.90
2022-12-20T22:26:26.839Z,99.90
2022-12-20T22:28:57.770Z,99.90
2022-12-20T22:31:26.790Z,99.90
2022-12-20T22:33:54.938Z,99.90
2022-12-20T22:36:22.948Z,99.90
2022-12-20T22:38:54.271Z,99.90
2022-12-20T22:41:39.636Z,99.90
2022-12-20T22:44:06.911Z,99.90
2022-12-20T22:46:34.180Z,99.90
2022-12-20T22:49:02.127Z,99.90
2022-12-20T22:51:32.162Z,99.90
2022-12-20T22:54:00.152Z,99.90
2022-12-20T22:56:27.650Z,99.90
2022-12-20T22:58:54.875Z,99.90
2022-12-20T23:01:22.051Z,99.90
2022-12-20T23:03:49.907Z,99.90
2022-12-20T23:06:19.998Z,99.90
2022-12-20T23:08:48.604Z,99.90
2022-12-20T23:11:40.736Z,99.90
2022-12-20T23:14:32.478Z,99.90
2022-12-20T23:16:59.857Z,99.90
2022-12-20T23:19:27.234Z,99.90
2022-12-20T23:22:12.756Z,99.90
2022-12-20T23:24:40.019Z,99.90
2022-12-20T23:27:06.972Z,99.90
2022-12-20T23:29:33.916Z,99.90
2022-12-20T23:32:01.857Z,99.90
2022-12-20T23:34:29.009Z,99.90
2022-12-20T23:36:55.924Z,99.90
2022-12-20T23:39:23.202Z,99.90
2022-12-20T23:41:50.251Z,99.90
2022-12-20T23:44:17.803Z,99.90
2022-12-20T23:46:44.745Z,99.90
2022-12-20T23:49:11.869Z,99.90
2022-12-20T23:51:39.948Z,99.90
2022-12-20T23:54:06.955Z,99.90
2022-12-20T23:56:33.841Z,99.90
2022-12-20T23:59:01.194Z,99.90
